Terminal Aerodrome Forecast
Issued by NWS Los Angeles, CA

Home | Current Version | Previous Version | Text Only | Print | Product List | Glossary On
Versions: 1 2 3 4 5 6 7 8 9 10 11 12 13 14 15 16 17 18 19 20 21 22 23
000
FTUS46 KLOX 261200 AAA
TAFSMX
TAF AMD
KSMX 261251Z 2613/2712 33007KT P6SM SKC
     FM261600 31008KT P6SM SKC
     FM261900 32013G18KT P6SM SKC
     FM262200 30018G26KT P6SM SKC
     FM270400 30012KT P6SM SKC
     FM270700 VRB05KT P6SM SKC=

USA.gov is the U.S. government's official web portal to all federal, state and local government web resources and services.